createdAt,value
2019-02-19T00:01:16.194Z,20.63
2019-02-19T00:03:46.585Z,20.33
2019-02-19T00:06:17.610Z,20.93
2019-02-19T00:08:47.956Z,22.50
2019-02-19T00:11:18.924Z,24.50
2019-02-19T00:13:49.318Z,21.80
2019-02-19T00:16:20.601Z,21.63
2019-02-19T00:18:50.993Z,24.17
2019-02-19T00:21:22.142Z,20.93
2019-02-19T00:23:53.550Z,24.50
2019-02-19T00:26:25.546Z,22.13
2019-02-19T00:28:56.179Z,21.90
2019-02-19T00:31:26.972Z,22.83
2019-02-19T00:33:57.546Z,23.83
2019-02-19T00:36:28.276Z,23.43
2019-02-19T00:38:58.746Z,23.23
2019-02-19T00:41:29.881Z,23.57
2019-02-19T00:44:00.283Z,22.67
2019-02-19T00:46:31.576Z,24.57
2019-02-19T00:49:01.873Z,25.40
2019-02-19T00:51:32.703Z,25.90
2019-02-19T00:54:03.322Z,24.47
2019-02-19T00:56:34.254Z,24.60
2019-02-19T00:59:04.682Z,24.17
2019-02-19T01:01:35.962Z,23.67
2019-02-19T01:04:06.356Z,21.43
2019-02-19T01:06:37.635Z,24.77
2019-02-19T01:09:09.507Z,25.63
2019-02-19T01:11:40.538Z,23.37
2019-02-19T01:14:10.926Z,25.67
2019-02-19T01:16:42.867Z,25.70
2019-02-19T01:19:13.228Z,24.93
2019-02-19T01:21:44.187Z,25.53
2019-02-19T01:24:14.585Z,26.70
2019-02-19T01:26:45.990Z,27.53
2019-02-19T01:29:16.270Z,25.53
2019-02-19T01:31:47.549Z,24.83
2019-02-19T01:34:17.932Z,29.17
2019-02-19T01:36:48.670Z,25.07
2019-02-19T01:39:18.989Z,27.87
2019-02-19T01:41:49.961Z,26.63
2019-02-19T01:44:20.359Z,27.93
2019-02-19T01:46:51.328Z,28.77
2019-02-19T01:49:21.605Z,27.73
2019-02-19T01:51:53.250Z,26.87
2019-02-19T01:54:23.801Z,26.77
2019-02-19T01:56:55.084Z,28.07
2019-02-19T01:59:25.511Z,27.83
2019-02-19T02:01:56.753Z,29.50
2019-02-19T02:04:27.145Z,29.17
2019-02-19T02:06:58.126Z,27.03
2019-02-19T02:09:28.510Z,29.63
2019-02-19T02:11:59.477Z,30.07
2019-02-19T02:14:29.895Z,28.37
2019-02-19T02:17:01.154Z,31.13
2019-02-19T02:19:31.556Z,31.23
2019-02-19T02:22:02.529Z,29.67
2019-02-19T02:24:32.917Z,28.93
2019-02-19T02:27:03.663Z,29.40
2019-02-19T02:29:33.970Z,28.27
2019-02-19T02:32:04.717Z,31.77
2019-02-19T02:34:35.048Z,30.10
2019-02-19T02:37:06.393Z,33.30
2019-02-19T02:39:36.714Z,30.13
2019-02-19T02:42:07.388Z,29.43
2019-02-19T02:44:37.762Z,30.20
2019-02-19T02:47:09.043Z,31.70
2019-02-19T02:49:39.436Z,32.47
2019-02-19T02:52:10.714Z,31.07
2019-02-19T02:54:41.118Z,31.30
2019-02-19T02:57:12.386Z,33.33
2019-02-19T02:59:42.671Z,31.37
2019-02-19T03:02:13.746Z,35.17
2019-02-19T03:04:44.141Z,33.43
2019-02-19T03:07:23.220Z,33.73
2019-02-19T03:09:53.808Z,33.67
2019-02-19T03:12:25.095Z,33.80
2019-02-19T03:14:55.499Z,32.43
2019-02-19T03:17:26.544Z,33.10
2019-02-19T03:19:56.900Z,34.47
2019-02-19T03:22:28.205Z,33.00
2019-02-19T03:24:58.833Z,33.97
2019-02-19T03:27:30.105Z,33.40
2019-02-19T03:30:00.506Z,33.57
2019-02-19T03:32:31.017Z,33.07
2019-02-19T03:35:01.563Z,34.37
2019-02-19T03:37:32.840Z,32.00
2019-02-19T03:40:03.552Z,33.27
2019-02-19T03:42:34.730Z,32.07
2019-02-19T03:45:05.761Z,33.83
2019-02-19T03:47:36.797Z,33.97
2019-02-19T03:50:07.196Z,34.17
2019-02-19T03:52:38.478Z,34.97
2019-02-19T03:55:08.870Z,34.77
2019-02-19T03:57:40.258Z,37.37
2019-02-19T04:00:11.611Z,34.10
2019-02-19T04:02:43.047Z,35.70
2019-02-19T04:05:14.501Z,35.70
2019-02-19T04:07:45.795Z,34.50
2019-02-19T04:10:16.778Z,36.27
2019-02-19T04:12:48.163Z,36.37
2019-02-19T04:15:19.126Z,36.57
2019-02-19T04:17:50.371Z,39.10
2019-02-19T04:20:22.054Z,36.73
2019-02-19T04:22:53.700Z,35.40
2019-02-19T04:25:25.182Z,36.00
2019-02-19T04:27:56.015Z,34.27
2019-02-19T04:30:27.205Z,35.93
2019-02-19T04:32:58.538Z,37.43
2019-02-19T04:35:29.911Z,38.03
2019-02-19T04:38:00.909Z,36.93
2019-02-19T04:40:32.054Z,36.60
2019-02-19T04:43:03.065Z,37.20
2019-02-19T04:45:34.058Z,35.63
2019-02-19T04:48:05.781Z,35.57
2019-02-19T04:50:36.931Z,36.60
2019-02-19T04:53:08.125Z,34.50
2019-02-19T04:55:39.366Z,37.20
2019-02-19T04:58:10.967Z,37.57
2019-02-19T05:00:42.112Z,38.57
2019-02-19T05:03:12.991Z,37.23
2019-02-19T05:05:44.437Z,37.70
2019-02-19T05:08:15.856Z,38.33
2019-02-19T05:10:47.218Z,36.30
2019-02-19T05:13:18.762Z,37.97
2019-02-19T05:15:49.608Z,39.23
2019-02-19T05:18:21.040Z,37.27
2019-02-19T05:20:52.082Z,36.33
2019-02-19T05:23:23.332Z,38.63
2019-02-19T05:25:54.479Z,40.07
2019-02-19T05:28:27.177Z,40.97
2019-02-19T05:30:59.214Z,39.57
2019-02-19T05:33:30.185Z,38.67
2019-02-19T05:36:01.326Z,39.40
2019-02-19T05:38:32.756Z,39.27
2019-02-19T05:41:03.498Z,36.57
2019-02-19T05:43:34.172Z,38.13
2019-02-19T05:46:04.499Z,37.70
2019-02-19T05:48:35.534Z,37.57
2019-02-19T05:51:05.942Z,40.43
2019-02-19T05:53:36.855Z,38.63
2019-02-19T05:56:07.287Z,42.40
2019-02-19T05:58:38.341Z,38.90
2019-02-19T06:01:09.267Z,42.03
2019-02-19T06:03:40.194Z,41.33
2019-02-19T06:06:11.276Z,39.57
2019-02-19T06:08:42.674Z,40.20
2019-02-19T06:11:13.218Z,40.53
2019-02-19T06:13:44.233Z,41.13
2019-02-19T06:16:14.598Z,44.13
2019-02-19T06:18:45.670Z,41.57
2019-02-19T06:21:16.272Z,40.60
2019-02-19T06:23:47.557Z,43.43
2019-02-19T06:26:18.815Z,42.73
2019-02-19T06:28:50.110Z,39.97
2019-02-19T06:31:21.250Z,42.00
2019-02-19T06:33:52.074Z,44.03
2019-02-19T06:36:23.219Z,43.93
2019-02-19T06:38:54.465Z,42.73
2019-02-19T06:41:25.658Z,44.47
2019-02-19T06:43:56.764Z,46.57
2019-02-19T06:46:28.306Z,44.60
2019-02-19T06:48:59.473Z,44.33
2019-02-19T06:51:30.580Z,46.03
2019-02-19T06:54:01.559Z,44.80
2019-02-19T06:56:36.045Z,43.07
2019-02-19T06:59:07.536Z,49.50
2019-02-19T07:01:56.175Z,48.70
2019-02-19T07:04:31.615Z,44.73
2019-02-19T07:07:02.708Z,47.57
2019-02-19T07:09:33.822Z,46.80
2019-02-19T07:12:04.727Z,43.23
2019-02-19T07:14:36.174Z,44.73
2019-02-19T07:17:15.300Z,43.23
2019-02-19T07:19:40.943Z,45.97
2019-02-19T07:22:12.377Z,43.63
2019-02-19T07:24:43.822Z,43.13
2019-02-19T07:27:15.006Z,48.03
2019-02-19T07:29:46.382Z,44.83
2019-02-19T07:32:17.448Z,43.13
2019-02-19T07:34:48.330Z,46.23
2019-02-19T07:37:19.518Z,45.00
2019-02-19T07:39:50.871Z,45.30
2019-02-19T07:42:22.445Z,42.33
2019-02-19T07:44:53.714Z,43.67
2019-02-19T07:47:24.965Z,43.20
2019-02-19T07:49:55.676Z,40.33
2019-02-19T07:52:27.127Z,44.07
2019-02-19T07:54:58.572Z,41.80
2019-02-19T07:57:29.449Z,42.20
2019-02-19T08:00:00.571Z,43.00
2019-02-19T08:02:31.726Z,42.43
2019-02-19T08:05:06.838Z,42.10
2019-02-19T08:07:38.283Z,46.17
2019-02-19T08:10:09.750Z,40.70
2019-02-19T08:12:40.879Z,42.67
2019-02-19T08:15:12.033Z,41.57
2019-02-19T08:17:43.169Z,42.80
2019-02-19T08:20:16.141Z,39.63
2019-02-19T08:22:47.601Z,42.03
2019-02-19T08:25:18.750Z,39.57
2019-02-19T08:27:51.352Z,39.60
2019-02-19T08:30:23.226Z,41.10
2019-02-19T08:32:54.326Z,39.80
2019-02-19T08:35:25.790Z,40.90
2019-02-19T08:37:57.544Z,41.73
2019-02-19T08:40:28.475Z,37.93
2019-02-19T08:42:59.415Z,39.03
2019-02-19T08:45:30.747Z,38.27
2019-02-19T08:48:02.163Z,40.50
2019-02-19T08:50:32.845Z,38.77
2019-02-19T08:53:03.890Z,38.67
2019-02-19T08:55:34.981Z,39.80
2019-02-19T08:58:05.794Z,36.97
2019-02-19T09:00:36.201Z,38.40
2019-02-19T09:03:07.437Z,37.20
2019-02-19T09:05:38.279Z,37.47
2019-02-19T09:08:09.463Z,36.07
2019-02-19T09:10:40.221Z,36.30
2019-02-19T09:13:11.438Z,37.47
2019-02-19T09:15:41.852Z,39.33
2019-02-19T09:18:12.799Z,36.63
2019-02-19T09:20:43.556Z,35.73
2019-02-19T09:23:14.742Z,35.80
2019-02-19T09:25:46.234Z,38.20
2019-02-19T09:28:17.650Z,38.03
2019-02-19T09:30:48.890Z,33.43
2019-02-19T09:33:19.956Z,35.57
2019-02-19T09:35:50.682Z,34.50
2019-02-19T09:38:21.365Z,36.70
2019-02-19T09:40:51.925Z,33.43
2019-02-19T09:43:22.758Z,38.17
2019-02-19T09:45:53.291Z,36.73
2019-02-19T09:48:24.333Z,32.60
2019-02-19T09:50:54.778Z,33.77
2019-02-19T09:53:25.698Z,36.07
2019-02-19T09:55:56.131Z,33.20
2019-02-19T09:58:27.062Z,32.03
2019-02-19T10:00:57.485Z,33.77
2019-02-19T10:03:28.367Z,30.80
2019-02-19T10:05:58.871Z,33.00
2019-02-19T10:08:30.167Z,32.80
2019-02-19T10:11:00.556Z,29.70
2019-02-19T10:13:31.471Z,35.00
2019-02-19T10:16:01.914Z,31.03
2019-02-19T10:18:32.833Z,31.20
2019-02-19T10:21:03.277Z,31.50
2019-02-19T10:23:34.207Z,31.10
2019-02-19T10:26:05.655Z,32.33
2019-02-19T10:28:36.840Z,31.87
2019-02-19T10:31:08.021Z,29.57
2019-02-19T10:33:39.398Z,29.20
2019-02-19T10:36:10.259Z,30.30
2019-02-19T10:38:41.406Z,31.10
2019-02-19T10:41:12.439Z,29.80
2019-02-19T10:43:44.005Z,30.50
2019-02-19T10:46:15.387Z,26.70
2019-02-19T10:48:46.352Z,31.80
2019-02-19T10:51:17.398Z,29.83
2019-02-19T10:53:48.869Z,29.57
2019-02-19T10:56:20.003Z,29.10
2019-02-19T10:58:51.134Z,28.93
2019-02-19T11:01:22.263Z,28.80
2019-02-19T11:03:53.425Z,27.23
2019-02-19T11:06:24.603Z,27.87
2019-02-19T11:08:56.071Z,28.20
2019-02-19T11:11:27.031Z,28.70
2019-02-19T11:13:58.609Z,28.50
2019-02-19T11:16:29.487Z,28.20
2019-02-19T11:19:00.342Z,27.97
2019-02-19T11:21:31.165Z,26.70
2019-02-19T11:24:02.588Z,26.33
2019-02-19T11:26:33.733Z,27.73
2019-02-19T11:29:05.301Z,26.50
2019-02-19T11:31:36.341Z,26.13
2019-02-19T11:34:07.470Z,26.97
2019-02-19T11:36:38.527Z,24.50
2019-02-19T11:39:11.610Z,25.53
2019-02-19T11:41:42.873Z,25.13
2019-02-19T11:44:14.465Z,24.50
2019-02-19T11:46:45.966Z,24.37
2019-02-19T11:49:17.161Z,25.07
2019-02-19T11:51:49.137Z,24.77
2019-02-19T11:54:21.897Z,28.80
2019-02-19T11:56:53.338Z,24.97
2019-02-19T11:59:24.449Z,25.30
2019-02-19T12:01:56.484Z,24.03
2019-02-19T12:04:27.639Z,24.83
2019-02-19T12:06:59.386Z,22.67
2019-02-19T12:09:31.759Z,24.23
2019-02-19T12:12:03.105Z,23.43
2019-02-19T12:14:34.397Z,23.73
2019-02-19T12:17:06.010Z,24.13
2019-02-19T12:19:36.990Z,22.63
2019-02-19T12:22:07.783Z,23.07
2019-02-19T12:24:38.987Z,22.97
2019-02-19T12:27:09.775Z,22.30
2019-02-19T12:29:41.076Z,23.37
2019-02-19T12:32:12.366Z,21.93
2019-02-19T12:34:43.413Z,23.07
2019-02-19T12:37:14.683Z,22.17
2019-02-19T12:39:45.693Z,23.10
2019-02-19T12:42:16.915Z,24.13
2019-02-19T12:44:47.974Z,23.00
2019-02-19T12:47:19.529Z,21.70
2019-02-19T12:49:51.077Z,23.43
2019-02-19T12:52:22.441Z,21.43
2019-02-19T12:54:54.586Z,20.57
2019-02-19T12:57:25.714Z,20.83
2019-02-19T12:59:57.014Z,22.50
2019-02-19T13:02:28.305Z,22.07
2019-02-19T13:04:59.687Z,22.45
2019-02-19T13:07:31.458Z,19.97
2019-02-19T13:10:02.890Z,21.27
2019-02-19T13:12:34.243Z,19.57
2019-02-19T13:15:06.147Z,20.17
2019-02-19T13:17:36.974Z,20.27
2019-02-19T13:20:09.735Z,20.17
2019-02-19T13:22:40.806Z,19.97
2019-02-19T13:25:12.213Z,20.57
2019-02-19T13:27:44.918Z,20.60
2019-02-19T13:30:16.782Z,19.80
2019-02-19T13:32:47.871Z,18.80
2019-02-19T13:35:18.937Z,22.10
2019-02-19T13:37:50.620Z,19.70
2019-02-19T13:40:23.073Z,21.43
2019-02-19T13:42:54.379Z,19.60
2019-02-19T13:45:25.668Z,19.63
2019-02-19T13:48:05.489Z,19.03
2019-02-19T13:50:29.869Z,19.67
2019-02-19T13:53:19.374Z,18.47
2019-02-19T13:55:52.424Z,19.37
2019-02-19T13:58:23.494Z,20.37
2019-02-19T14:00:53.793Z,19.07
2019-02-19T14:03:24.906Z,17.43
2019-02-19T14:05:55.287Z,19.10
2019-02-19T14:08:25.973Z,18.23
2019-02-19T14:10:56.325Z,18.70
2019-02-19T14:13:28.535Z,18.77
2019-02-19T14:16:15.902Z,18.77
2019-02-19T14:19:06.147Z,19.77
2019-02-19T14:21:55.150Z,18.00
2019-02-19T14:24:33.305Z,17.33
2019-02-19T14:27:31.830Z,17.50
2019-02-19T14:30:22.813Z,17.67
2019-02-19T14:33:10.740Z,18.67
2019-02-19T14:36:03.601Z,16.90
2019-02-19T14:38:51.297Z,19.40
2019-02-19T14:41:47.351Z,20.50
2019-02-19T14:44:42.699Z,17.30
2019-02-19T14:47:38.489Z,19.10
2019-02-19T14:50:27.731Z,17.20
2019-02-19T14:53:16.099Z,16.60
2019-02-19T14:55:55.323Z,19.33
2019-02-19T14:58:43.883Z,19.63
2019-02-19T15:01:33.837Z,15.53
2019-02-19T15:04:39.407Z,18.30
2019-02-19T15:07:27.433Z,16.87
2019-02-19T15:10:16.272Z,15.77
2019-02-19T15:13:01.344Z,16.07
2019-02-19T15:15:51.565Z,16.60
2019-02-19T15:18:32.817Z,16.63
2019-02-19T15:21:25.573Z,18.00
2019-02-19T15:24:21.589Z,17.40
2019-02-19T15:27:24.049Z,15.13
2019-02-19T15:30:11.923Z,19.73
2019-02-19T15:33:04.386Z,16.87
2019-02-19T15:36:10.260Z,16.53
2019-02-19T15:39:00.443Z,15.47
2019-02-19T15:41:53.389Z,16.00
2019-02-19T15:44:43.885Z,16.93
2019-02-19T15:47:34.389Z,14.27
2019-02-19T15:50:23.704Z,14.60
2019-02-19T15:53:10.094Z,15.97
2019-02-19T15:56:17.526Z,16.07
2019-02-19T15:59:04.367Z,17.13
2019-02-19T16:01:46.799Z,14.73
2019-02-19T16:04:37.603Z,15.00
2019-02-19T16:07:39.863Z,15.73
2019-02-19T16:10:30.323Z,16.57
2019-02-19T16:13:33.133Z,14.33
2019-02-19T16:16:23.243Z,16.93
2019-02-19T16:19:03.615Z,16.40
2019-02-19T16:21:50.856Z,18.83
2019-02-19T16:24:49.701Z,16.60
2019-02-19T16:27:28.275Z,14.30
2019-02-19T16:30:07.043Z,17.23
2019-02-19T16:32:48.679Z,16.87
2019-02-19T16:35:38.923Z,13.77
2019-02-19T16:38:17.291Z,14.50
2019-02-19T16:41:10.179Z,15.27
2019-02-19T16:43:57.194Z,16.50
2019-02-19T16:46:50.150Z,13.97
2019-02-19T16:50:06.851Z,13.67
2019-02-19T16:52:49.683Z,14.17
2019-02-19T16:55:40.102Z,14.10
2019-02-19T16:58:26.678Z,14.00
2019-02-19T17:01:02.481Z,13.97
2019-02-19T17:03:51.389Z,14.37
2019-02-19T17:06:29.971Z,13.23
2019-02-19T17:09:31.777Z,13.67
2019-02-19T17:12:17.715Z,14.77
2019-02-19T17:14:57.350Z,13.80
2019-02-19T17:17:49.988Z,13.40
2019-02-19T17:20:46.634Z,13.43
2019-02-19T17:23:23.324Z,13.53
2019-02-19T17:26:13.561Z,14.43
2019-02-19T17:29:09.070Z,12.83
2019-02-19T17:31:57.929Z,14.17
2019-02-19T17:34:56.262Z,14.87
2019-02-19T17:37:42.526Z,13.23
2019-02-19T17:40:18.737Z,13.07
2019-02-19T17:43:08.560Z,13.33
2019-02-19T17:45:51.737Z,13.87
2019-02-19T17:48:32.279Z,13.60
2019-02-19T17:51:28.745Z,13.53
2019-02-19T17:54:33.622Z,14.13
2019-02-19T17:57:22.023Z,15.67
2019-02-19T18:00:04.416Z,13.23
2019-02-19T18:02:52.653Z,14.40
2019-02-19T18:05:33.107Z,15.13
2019-02-19T18:08:25.211Z,12.93
2019-02-19T18:11:13.562Z,12.13
2019-02-19T18:13:52.650Z,13.20
2019-02-19T18:16:47.194Z,12.90
2019-02-19T18:19:17.882Z,13.43
2019-02-19T18:21:48.642Z,13.03
2019-02-19T18:24:19.551Z,12.20
2019-02-19T18:26:50.844Z,14.23
2019-02-19T18:29:21.981Z,12.43
2019-02-19T18:31:53.499Z,12.13
2019-02-19T18:34:24.439Z,13.77
2019-02-19T18:36:55.653Z,11.90
2019-02-19T18:39:26.923Z,12.13
2019-02-19T18:41:58.354Z,12.07
2019-02-19T18:44:30.082Z,13.37
2019-02-19T18:47:01.503Z,12.30
2019-02-19T18:49:32.704Z,12.87
2019-02-19T18:52:04.423Z,12.17
2019-02-19T18:54:35.792Z,12.97
2019-02-19T18:57:06.611Z,12.07
2019-02-19T18:59:38.060Z,11.80
2019-02-19T19:02:08.818Z,12.73
2019-02-19T19:04:41.656Z,11.33
2019-02-19T19:07:13.958Z,12.83
2019-02-19T19:09:44.794Z,11.43
2019-02-19T19:12:15.333Z,11.50
2019-02-19T19:14:46.249Z,12.30
2019-02-19T19:17:19.010Z,12.30
2019-02-19T19:19:50.069Z,12.20
2019-02-19T19:22:20.528Z,11.27
2019-02-19T19:24:51.319Z,12.47
2019-02-19T19:27:21.979Z,11.47
2019-02-19T19:29:55.090Z,11.57
2019-02-19T19:32:26.093Z,11.60
2019-02-19T19:34:57.724Z,11.60
2019-02-19T19:37:31.859Z,11.50
2019-02-19T19:40:02.859Z,10.83
2019-02-19T19:42:34.566Z,11.80
2019-02-19T19:45:06.050Z,11.83
2019-02-19T19:47:37.466Z,10.73
2019-02-19T19:50:09.020Z,11.57
2019-02-19T19:52:40.108Z,10.50
2019-02-19T19:55:11.824Z,12.90
2019-02-19T19:57:42.961Z,10.27
2019-02-19T20:00:14.143Z,11.30
2019-02-19T20:02:45.861Z,10.40
2019-02-19T20:05:17.375Z,13.03
2019-02-19T20:07:48.815Z,12.73
2019-02-19T20:10:20.768Z,10.50
2019-02-19T20:12:52.314Z,11.30
2019-02-19T20:15:28.448Z,10.87
2019-02-19T20:17:59.715Z,11.13
2019-02-19T20:20:30.197Z,11.13
2019-02-19T20:23:02.339Z,11.13
2019-02-19T20:25:33.158Z,12.67
2019-02-19T20:28:06.005Z,11.17
2019-02-19T20:30:36.733Z,10.03
2019-02-19T20:33:08.022Z,11.40
2019-02-19T20:35:39.018Z,11.37
2019-02-19T20:38:09.974Z,10.60
2019-02-19T20:40:40.674Z,9.80
2019-02-19T20:43:11.740Z,10.53
2019-02-19T20:45:42.802Z,10.40
2019-02-19T20:48:14.049Z,10.63
2019-02-19T20:50:44.822Z,10.27
2019-02-19T20:53:16.393Z,10.30
2019-02-19T20:55:47.336Z,10.77
2019-02-19T20:58:19.132Z,10.73
2019-02-19T21:00:50.736Z,11.33
2019-02-19T21:03:22.457Z,10.57
2019-02-19T21:05:53.495Z,10.10
2019-02-19T21:08:24.407Z,10.93
2019-02-19T21:10:54.882Z,10.27
2019-02-19T21:13:25.858Z,10.90
2019-02-19T21:15:57.121Z,11.27
2019-02-19T21:18:28.075Z,9.20
2019-02-19T21:21:00.066Z,9.73
2019-02-19T21:23:31.030Z,9.83
2019-02-19T21:26:01.823Z,10.87
2019-02-19T21:28:32.995Z,9.73
2019-02-19T21:31:05.666Z,10.73
2019-02-19T21:33:37.078Z,9.70
2019-02-19T21:36:09.578Z,9.97
2019-02-19T21:38:41.159Z,11.43
2019-02-19T21:41:13.881Z,10.53
2019-02-19T21:43:44.906Z,9.30
2019-02-19T21:46:16.453Z,9.47
2019-02-19T21:48:48.449Z,12.03
2019-02-19T21:51:19.795Z,9.57
2019-02-19T21:53:51.751Z,9.53
2019-02-19T21:56:23.832Z,9.37
2019-02-19T21:58:56.095Z,12.13
2019-02-19T22:01:27.374Z,9.57
2019-02-19T22:03:58.856Z,10.03
2019-02-19T22:06:30.869Z,9.67
2019-02-19T22:09:04.809Z,8.57
2019-02-19T22:11:38.661Z,10.93
2019-02-19T22:14:10.438Z,8.60
2019-02-19T22:16:42.354Z,9.67
2019-02-19T22:19:14.244Z,9.60
2019-02-19T22:22:06.444Z,10.33
2019-02-19T22:24:38.974Z,9.27
2019-02-19T22:27:09.886Z,10.10
2019-02-19T22:29:41.125Z,9.57
2019-02-19T22:32:13.633Z,9.30
2019-02-19T22:34:46.320Z,9.10
2019-02-19T22:37:18.977Z,8.27
2019-02-19T22:39:50.234Z,8.80
2019-02-19T22:42:21.393Z,9.30
2019-02-19T22:44:52.731Z,8.27
2019-02-19T22:47:24.470Z,9.13
2019-02-19T22:49:55.363Z,8.27
2019-02-19T22:52:26.515Z,9.27
2019-02-19T22:55:03.751Z,9.30
2019-02-19T22:57:35.220Z,8.77
2019-02-19T23:00:11.489Z,8.70
2019-02-19T23:02:44.833Z,9.73
2019-02-19T23:05:16.627Z,9.40
2019-02-19T23:07:47.938Z,8.80
2019-02-19T23:10:19.297Z,9.07
2019-02-19T23:12:50.686Z,9.83
2019-02-19T23:15:21.671Z,8.30
2019-02-19T23:17:52.954Z,8.40
2019-02-19T23:20:24.702Z,8.97
2019-02-19T23:22:55.885Z,8.57
2019-02-19T23:25:27.314Z,8.30
2019-02-19T23:27:58.443Z,8.27
2019-02-19T23:30:29.613Z,8.87
2019-02-19T23:33:01.037Z,9.77
2019-02-19T23:35:37.098Z,8.30
2019-02-19T23:38:08.543Z,9.00
2019-02-19T23:40:40.001Z,9.80
2019-02-19T23:43:11.446Z,8.67
2019-02-19T23:45:42.630Z,8.03
2019-02-19T23:48:13.772Z,7.20
2019-02-19T23:50:44.881Z,8.73
2019-02-19T23:53:16.063Z,8.37
2019-02-19T23:55:47.653Z,9.40
2019-02-19T23:58:18.922Z,9.03
